Time;durP1;ratioP1;P1;durP2;ratioP2;P2;SDS_P1;SDS_P2;PMS_P1;PMS_P2;Temp;Humidity;BMP_temperature;BMP_pressure;BME280_temperature;BME280_humidity;BME280_pressure;Samples;Min_cycle;Max_cycle;Signal;HPM_P1;HPM_P2
2023/12/18 00:02:50;;;;;;;;;;;1.50;99.90;;;;;;20931715;28;19912;-79
2023/12/18 00:12:50;;;;;;;;;;;1.60;99.90;;;;;;20938763;28;20368;-79
2023/12/18 00:22:51;;;;;;;;;;;1.60;99.90;;;;;;20946929;28;19976;-78
2023/12/18 00:32:52;;;;;;;;;;;1.50;99.90;;;;;;20948837;28;19931;-79
2023/12/18 00:42:53;;;;;;;;;;;1.50;99.90;;;;;;20942355;28;20364;-79
2023/12/18 00:52:53;;;;;;;;;;;1.50;99.90;;;;;;20943114;28;19919;-79
2023/12/18 01:02:54;;;;;;;;;;;1.50;99.90;;;;;;20924949;28;19908;-80
2023/12/18 01:12:55;;;;;;;;;;;1.30;99.90;;;;;;20941281;28;19912;-78
2023/12/18 01:22:56;;;;;;;;;;;1.30;99.90;;;;;;20939901;28;19908;-79
2023/12/18 01:32:56;;;;;;;;;;;1.30;99.90;;;;;;20940193;28;19958;-80
2023/12/18 01:42:57;;;;;;;;;;;1.40;99.90;;;;;;20940724;28;19978;-80
2023/12/18 01:52:59;;;;;;;;;;;1.40;99.90;;;;;;20942271;28;19955;-80
2023/12/18 02:03:00;;;;;;;;;;;1.40;99.90;;;;;;20941837;28;19909;-79
2023/12/18 02:13:01;;;;;;;;;;;1.40;99.90;;;;;;20918305;28;19917;-79
2023/12/18 02:23:02;;;;;;;;;;;1.40;99.90;;;;;;20932468;28;19909;-80
2023/12/18 02:33:03;;;;;;;;;;;1.40;99.90;;;;;;20938710;28;19942;-80
2023/12/18 02:43:03;;;;;;;;;;;1.50;99.90;;;;;;20937053;28;20292;-80
2023/12/18 02:53:04;;;;;;;;;;;1.50;99.90;;;;;;20931158;28;20373;-81
2023/12/18 03:03:05;;;;;;;;;;;1.50;99.90;;;;;;20926196;28;19909;-79
2023/12/18 03:13:05;;;;;;;;;;;1.50;99.90;;;;;;20930755;28;19920;-78
2023/12/18 03:23:06;;;;;;;;;;;1.50;99.90;;;;;;20931417;28;19954;-77
2023/12/18 03:33:07;;;;;;;;;;;1.50;99.90;;;;;;20912725;28;19913;-79
2023/12/18 03:43:07;;;;;;;;;;;1.50;99.90;;;;;;20929505;28;19924;-80
2023/12/18 03:53:08;;;;;;;;;;;1.40;99.90;;;;;;20928585;28;20385;-80
2023/12/18 04:03:09;;;;;;;;;;;1.50;99.90;;;;;;20911075;28;19908;-80
2023/12/18 04:13:09;;;;;;;;;;;1.50;99.90;;;;;;20939641;28;19912;-80
2023/12/18 04:23:10;;;;;;;;;;;1.40;99.90;;;;;;20929909;28;19913;-79
2023/12/18 04:33:11;;;;;;;;;;;1.40;99.90;;;;;;20926555;28;19917;-79
2023/12/18 04:43:11;;;;;;;;;;;1.40;99.90;;;;;;20927056;28;19908;-80
2023/12/18 04:53:12;;;;;;;;;;;1.40;99.90;;;;;;20914936;28;19913;-80
2023/12/18 05:03:13;;;;;;;;;;;1.30;99.90;;;;;;20921700;28;19958;-80
2023/12/18 05:13:13;;;;;;;;;;;1.40;99.90;;;;;;20907547;28;19946;-80
2023/12/18 05:23:14;;;;;;;;;;;1.30;99.90;;;;;;20923908;28;19972;-80
2023/12/18 05:33:15;;;;;;;;;;;1.30;99.90;;;;;;20941074;28;19913;-80
2023/12/18 05:43:15;;;;;;;;;;;1.30;99.90;;;;;;20941512;28;20308;-79
2023/12/18 05:53:16;;;;;;;;;;;1.40;99.90;;;;;;20921994;28;19913;-78
2023/12/18 06:03:17;;;;;;;;;;;1.40;99.90;;;;;;20939670;28;19976;-79
2023/12/18 06:13:17;;;;;;;;;;;1.30;99.90;;;;;;20935631;28;20335;-79
2023/12/18 06:23:18;;;;;;;;;;;1.30;99.90;;;;;;20909368;28;19931;-80
2023/12/18 06:33:19;;;;;;;;;;;1.20;99.90;;;;;;20932284;28;19938;-79
2023/12/18 06:43:19;;;;;;;;;;;1.30;99.90;;;;;;20930253;28;19915;-81
2023/12/18 06:53:20;;;;;;;;;;;1.10;99.90;;;;;;20922387;28;19957;-78
2023/12/18 07:03:20;;;;;;;;;;;1.10;99.90;;;;;;20904018;28;19912;-78
2023/12/18 07:13:21;;;;;;;;;;;1.20;99.90;;;;;;20903583;28;19952;-79
2023/12/18 07:23:22;;;;;;;;;;;1.10;99.90;;;;;;20905171;28;19909;-78
2023/12/18 07:33:23;;;;;;;;;;;1.20;99.90;;;;;;20913370;28;19939;-78
2023/12/18 07:43:23;;;;;;;;;;;1.20;99.90;;;;;;20912829;28;19988;-79
2023/12/18 07:53:24;;;;;;;;;;;1.30;99.90;;;;;;20936611;28;19912;-80
2023/12/18 08:03:25;;;;;;;;;;;1.30;99.90;;;;;;20916480;28;19915;-77
2023/12/18 08:13:25;;;;;;;;;;;1.40;99.90;;;;;;20911270;28;20411;-79
2023/12/18 08:23:26;;;;;;;;;;;1.20;99.90;;;;;;20901732;28;19955;-80
2023/12/18 08:33:27;;;;;;;;;;;1.30;99.90;;;;;;20910658;28;20324;-80
2023/12/18 08:43:27;;;;;;;;;;;1.30;99.90;;;;;;20949532;28;19916;-80
2023/12/18 08:53:28;;;;;;;;;;;1.40;99.90;;;;;;20942822;28;19988;-80
2023/12/18 09:03:34;;;;;;;;;;;1.50;99.90;;;;;;20944746;28;19909;-80
2023/12/18 09:13:36;;;;;;;;;;;1.60;99.90;;;;;;20924545;28;19913;-80
2023/12/18 09:23:37;;;;;;;;;;;1.50;99.90;;;;;;20934947;28;19909;-79
2023/12/18 09:33:38;;;;;;;;;;;1.60;99.90;;;;;;20942145;28;19920;-80
2023/12/18 09:43:38;;;;;;;;;;;1.50;99.90;;;;;;20942775;28;19909;-80
2023/12/18 09:53:39;;;;;;;;;;;1.70;99.90;;;;;;20941595;28;20047;-80
2023/12/18 10:03:40;;;;;;;;;;;1.50;99.90;;;;;;20941135;28;19909;-80
2023/12/18 10:13:43;;;;;;;;;;;1.80;99.90;;;;;;20940087;28;19999;-80
2023/12/18 10:23:43;;;;;;;;;;;1.60;99.90;;;;;;20939388;28;20388;-77
2023/12/18 10:33:44;;;;;;;;;;;1.60;99.90;;;;;;20937034;28;19917;-80
2023/12/18 10:43:46;;;;;;;;;;;1.60;99.90;;;;;;20933920;28;20084;-80
2023/12/18 10:53:48;;;;;;;;;;;1.60;99.90;;;;;;20938241;28;19934;-79
2023/12/18 11:03:49;;;;;;;;;;;1.70;99.90;;;;;;20936248;28;19908;-78
2023/12/18 11:14:02;;;;;;;;;;;1.70;99.90;;;;;;20935238;28;19913;-78
2023/12/18 11:24:03;;;;;;;;;;;1.80;99.90;;;;;;20925453;28;19932;-76
2023/12/18 11:34:07;;;;;;;;;;;1.70;99.90;;;;;;20941956;28;19945;-80
2023/12/18 11:44:08;;;;;;;;;;;1.80;99.90;;;;;;20910320;28;19909;-77
2023/12/18 11:54:13;;;;;;;;;;;1.90;99.90;;;;;;20931696;28;19919;-80
2023/12/18 12:04:15;;;;;;;;;;;2.20;99.90;;;;;;20901583;28;19916;-81
2023/12/18 12:14:16;;;;;;;;;;;2.00;99.90;;;;;;20917605;28;19994;-80
2023/12/18 12:24:17;;;;;;;;;;;2.10;99.90;;;;;;20921809;28;19909;-80
2023/12/18 12:34:18;;;;;;;;;;;2.10;99.90;;;;;;20886396;28;19919;-80
2023/12/18 12:44:19;;;;;;;;;;;2.20;99.90;;;;;;20918151;28;19909;-78
2023/12/18 12:54:19;;;;;;;;;;;2.30;99.90;;;;;;20941727;28;19935;-80
2023/12/18 13:04:20;;;;;;;;;;;2.40;99.90;;;;;;20901752;28;20417;-76
2023/12/18 13:14:21;;;;;;;;;;;2.40;99.90;;;;;;20939298;28;19920;-80
2023/12/18 13:24:21;;;;;;;;;;;2.50;99.90;;;;;;20922479;28;19909;-80
2023/12/18 13:34:22;;;;;;;;;;;2.70;99.90;;;;;;20952568;28;19918;-80
2023/12/18 13:44:22;;;;;;;;;;;2.80;99.90;;;;;;20938628;28;19916;-80
2023/12/18 13:54:23;;;;;;;;;;;2.60;99.90;;;;;;20941675;28;19959;-80
2023/12/18 14:04:24;;;;;;;;;;;2.80;99.90;;;;;;20943329;28;19908;-79
2023/12/18 14:14:24;;;;;;;;;;;2.70;99.90;;;;;;20914197;28;20529;-80
2023/12/18 14:24:25;;;;;;;;;;;2.80;99.90;;;;;;20925447;28;19908;-79
2023/12/18 14:34:26;;;;;;;;;;;2.60;99.90;;;;;;20929761;28;19913;-80
2023/12/18 14:44:30;;;;;;;;;;;2.60;99.90;;;;;;20925574;28;19912;-78
2023/12/18 14:54:30;;;;;;;;;;;2.60;99.90;;;;;;20945762;28;19939;-79
2023/12/18 15:04:31;;;;;;;;;;;2.50;99.90;;;;;;20934063;28;19913;-79
2023/12/18 15:14:32;;;;;;;;;;;2.40;99.90;;;;;;20929135;28;20404;-79
2023/12/18 15:24:33;;;;;;;;;;;2.40;99.90;;;;;;20897890;28;20358;-79
2023/12/18 15:34:33;;;;;;;;;;;2.20;99.90;;;;;;20865000;28;20434;-77
2023/12/18 15:44:34;;;;;;;;;;;2.30;99.90;;;;;;20881979;28;19912;-77
2023/12/18 15:54:35;;;;;;;;;;;2.20;99.90;;;;;;20873734;28;19917;-76
2023/12/18 16:04:35;;;;;;;;;;;2.10;99.90;;;;;;20876849;28;19909;-79
2023/12/18 16:14:36;;;;;;;;;;;2.00;99.90;;;;;;20866891;28;19913;-79
2023/12/18 16:24:37;;;;;;;;;;;2.00;99.90;;;;;;20849545;28;19909;-79
2023/12/18 16:34:39;;;;;;;;;;;2.10;99.90;;;;;;20870727;28;19920;-79
2023/12/18 16:44:40;;;;;;;;;;;2.10;99.90;;;;;;20859795;28;19909;-79
2023/12/18 16:54:41;;;;;;;;;;;2.10;99.90;;;;;;20891083;28;20293;-78
2023/12/18 17:04:42;;;;;;;;;;;2.10;99.90;;;;;;20895956;28;20000;-79
2023/12/18 17:14:42;;;;;;;;;;;2.00;99.90;;;;;;20878724;28;19919;-80
2023/12/18 17:24:43;;;;;;;;;;;2.00;99.90;;;;;;20867567;28;19909;-78
2023/12/18 17:34:44;;;;;;;;;;;2.00;99.90;;;;;;20882642;28;19964;-78
2023/12/18 17:44:44;;;;;;;;;;;2.00;99.90;;;;;;20870901;28;19912;-78
2023/12/18 17:54:45;;;;;;;;;;;2.00;99.90;;;;;;20884802;28;19919;-78
2023/12/18 18:04:47;;;;;;;;;;;2.00;99.90;;;;;;20906631;28;20385;-78
2023/12/18 18:14:51;;;;;;;;;;;1.90;99.90;;;;;;20905850;28;19913;-78
2023/12/18 18:24:51;;;;;;;;;;;1.90;99.90;;;;;;20886681;28;19908;-78
2023/12/18 18:34:52;;;;;;;;;;;1.90;99.90;;;;;;20916989;28;20423;-79
2023/12/18 18:44:54;;;;;;;;;;;1.70;99.90;;;;;;20914112;28;19909;-78
2023/12/18 18:54:54;;;;;;;;;;;1.60;99.90;;;;;;20888421;28;20002;-80
2023/12/18 19:04:55;;;;;;;;;;;1.70;99.90;;;;;;20927721;28;19923;-78
2023/12/18 19:14:56;;;;;;;;;;;1.80;99.90;;;;;;20893387;28;19999;-77
2023/12/18 19:24:56;;;;;;;;;;;1.80;99.90;;;;;;20906552;28;19909;-78
2023/12/18 19:34:57;;;;;;;;;;;1.80;99.90;;;;;;20901521;28;19999;-78
2023/12/18 19:44:57;;;;;;;;;;;1.80;99.90;;;;;;20875451;28;19951;-78
2023/12/18 19:54:59;;;;;;;;;;;1.80;99.90;;;;;;20884683;28;20593;-77
2023/12/18 20:05:00;;;;;;;;;;;1.70;99.90;;;;;;20877840;28;19951;-78
2023/12/18 20:15:00;;;;;;;;;;;1.70;99.90;;;;;;20882102;28;19983;-79
2023/12/18 20:25:01;;;;;;;;;;;1.80;99.90;;;;;;20887169;28;19909;-79
2023/12/18 20:35:05;;;;;;;;;;;1.80;99.90;;;;;;20918367;28;19924;-80
2023/12/18 20:45:06;;;;;;;;;;;1.70;99.90;;;;;;20906110;28;19947;-80
2023/12/18 20:55:08;;;;;;;;;;;1.70;99.90;;;;;;20912167;28;19923;-80
2023/12/18 21:05:08;;;;;;;;;;;1.60;99.90;;;;;;20907390;28;20332;-78
2023/12/18 21:15:09;;;;;;;;;;;1.60;99.90;;;;;;20901365;28;19917;-79
2023/12/18 21:25:11;;;;;;;;;;;1.40;99.90;;;;;;20934361;28;19909;-79
2023/12/18 21:35:11;;;;;;;;;;;1.30;99.90;;;;;;20930671;28;19948;-79
2023/12/18 21:45:14;;;;;;;;;;;1.40;99.90;;;;;;20920639;28;19966;-78
2023/12/18 21:55:14;;;;;;;;;;;1.40;99.90;;;;;;20908142;28;19920;-78
2023/12/18 22:05:15;;;;;;;;;;;1.30;99.90;;;;;;20925544;28;19908;-79
2023/12/18 22:15:16;;;;;;;;;;;1.30;99.90;;;;;;20908088;28;19955;-77
2023/12/18 22:25:16;;;;;;;;;;;1.30;99.90;;;;;;20914137;28;19908;-78
2023/12/18 22:35:17;;;;;;;;;;;1.20;99.90;;;;;;20941216;28;20388;-79
2023/12/18 22:45:18;;;;;;;;;;;1.20;99.90;;;;;;20933689;28;19908;-79
2023/12/18 22:55:18;;;;;;;;;;;1.40;99.90;;;;;;20921083;28;19928;-79
2023/12/18 23:05:19;;;;;;;;;;;1.50;99.90;;;;;;20891743;28;19908;-79
2023/12/18 23:15:20;;;;;;;;;;;1.60;99.90;;;;;;20917743;28;19913;-79
2023/12/18 23:25:21;;;;;;;;;;;1.60;99.90;;;;;;20917109;28;19995;-78
2023/12/18 23:35:21;;;;;;;;;;;1.50;99.90;;;;;;20915794;28;19919;-78
2023/12/18 23:45:22;;;;;;;;;;;1.50;99.90;;;;;;20884024;28;19920;-78
2023/12/18 23:55:23;;;;;;;;;;;1.40;99.90;;;;;;20889624;28;19924;-78
